Nearby METAR Reports


KSYR - Syracuse, New York, USA
Distance from station: SE 5mi, 8km
Updated: Thu, 21-Mar-2019 3:54am EDT
Overcast
Overcast
 Wind from SE
Wind: SE 6 mph , 9 km/h
Temperature: 43°F , 6°C
Wind Chill: 39°F , 4°C
Dew Point: 21°F , -6°C
Humidity: 42%
Barometer: 30.09 inHg , 1019 hPa
Clouds: Overcast
Visibility: 10 miles , 16 km
Cloud details: Overcast 9000 ft
2019/03/21 07:54 KSYR 210754Z 13005KT 10SM OVC090 06/M06 A3009 RMK AO2 SLP188 T00561061 $
KFZY - Fulton, New York, USA
Distance from station: NW 17mi, 27km
Updated: Thu, 21-Mar-2019 3:54am EDT
Overcast
Overcast
 Wind from calm
Wind: Calm
Temperature: 43°F , 6°C
Dew Point: 27°F , -3°C
Humidity: 53%
Barometer: 30.08 inHg , 1018.6 hPa
Clouds: Overcast
Visibility: 10 miles , 16 km
Cloud details: Mostly cloudy 6000 ft
Overcast 8000 ft
2019/03/21 07:54 KFZY 210754Z AUTO 00000KT 10SM BKN060 OVC080 06/M03 A3008 RMK AO2 SLP188 T00561033
 
KRME - Rome/Griffiss Af, New York, USA
Distance from station: E 39mi, 62km
Updated: Thu, 21-Mar-2019 3:53am EDT
Overcast
Overcast
 Wind from ESE
Wind: ESE 6 mph , 9 km/h
Temperature: 39°F , 4°C
Wind Chill: 35°F , 2°C
Dew Point: 21°F , -6°C
Humidity: 48%
Barometer: 30.13 inHg , 1020.3 hPa
Clouds: Overcast
Visibility: 10 miles , 16 km
Cloud details: Overcast 8000 ft
2019/03/21 07:53 KRME 210753Z AUTO 12005KT 10SM OVC080 04/M06 A3013 RMK AO2 SLP203 T00391056
KITH - Ithaca/Tompkins, New York, USA
Distance from station: SSW 51mi, 82km
Updated: Thu, 21-Mar-2019 3:56am EDT
Overcast
Overcast
 Wind from SSE
Wind: SSE 12 mph , 19 km/h
Temperature: 39°F , 4°C
Wind Chill: 32°F , 0°C
Dew Point: 23°F , -5°C
Humidity: 52%
Barometer: 30.07 inHg , 1018.3 hPa
Clouds: Overcast
Visibility: 10 miles , 16 km
Cloud details: Overcast 9000 ft
2019/03/21 07:56 KITH 210756Z AUTO 15010KT 10SM OVC090 04/M05 A3007 RMK AO2 SLP188 T00391050
 
KART - Watertown, New York, USA
Distance from station: N 56mi, 91km
Updated: Thu, 21-Mar-2019 3:56am EDT
Overcast
Overcast
 Wind from S
Wind: S 7 mph , 11 km/h
Temperature: 43°F , 6°C
Wind Chill: 39°F , 4°C
Dew Point: 25°F , -4°C
Humidity: 49%
Barometer: 30.07 inHg , 1018.3 hPa
Clouds: Overcast
Visibility: 10 miles , 16 km
Cloud details: Mostly cloudy 6500 ft
Overcast 8000 ft
2019/03/21 07:56 KART 210756Z AUTO 17006KT 10SM BKN065 OVC080 06/M04 A3007 RMK AO2 SLP183 T00611044
KPEO - Penn Yan, New York, USA
Distance from station: SW 58mi, 93km
Updated: Thu, 21-Mar-2019 3:53am EDT
Overcast
Overcast
 Wind from S
Wind: S 6 mph , 9 km/h
Temperature: 41°F , 5°C
Wind Chill: 37°F , 3°C
Dew Point: 23°F , -5°C
Humidity: 49%
Barometer: 30.05 inHg , 1017.6 hPa
Clouds: Overcast
Visibility: 10 miles , 16 km
Cloud details: Overcast 8500 ft
2019/03/21 07:53 KPEO 210753Z AUTO 19005KT 10SM OVC085 05/M05 A3005 RMK AO2 SLP182 T00501050
 
KGTB - Fort Drum/Wheele, New York, USA
Distance from station: NNE 64mi, 102km
Updated: Thu, 21-Mar-2019 3:56am EDT
Partly cloudy
Partly cloudy
 Wind from S
Wind: S 6 mph , 9 km/h
Temperature: 39°F , 4°C
Wind Chill: 35°F , 2°C
Dew Point: 23°F , -5°C
Humidity: 52%
Barometer: 30.06 inHg , 1017.9 hPa
Clouds: Partly cloudy
Visibility: 10 miles , 16 km
Cloud details: Partly cloudy 6000 ft
2019/03/21 07:56 KGTB 210756Z AUTO 19005KT 10SM SCT060 04/M05 A3006 RMK AO2 SLP184 T00431050
CWQP - Point Petre (mar, Ontario, Canada
Distance from station: NW 67mi, 107km
Updated: Thu, 21-Mar-2019 3:00am EDT

 Wind from SW
Wind: SW 16 mph , 26 km/h
Temperature: 36°F , 2°C
Wind Chill: 26°F , -3°C
Dew Point: 30°F , -1°C
Humidity: 81%
2019/03/21 07:00 CWQP 210700Z AUTO 22014KT 02/M01 RMK AO1 PK WND 19018/0618 SLP184 T00211006 55005
 
KBGM - Binghamton, New York, USA
Distance from station: S 67mi, 107km
Updated: Thu, 21-Mar-2019 3:53am EDT
Mostly cloudy
Mostly cloudy
 Wind from SSE
Wind: SSE 8 mph , 13 km/h
Temperature: 34°F , 1°C
Wind Chill: 27°F , -3°C
Dew Point: 23°F , -5°C
Humidity: 65%
Barometer: 30.06 inHg , 1017.9 hPa
Clouds: Mostly cloudy
Visibility: 10 miles , 16 km
Cloud details: Mostly cloudy 10000 ft
2019/03/21 07:53 KBGM 210753Z AUTO 16007KT 10SM BKN100 01/M05 A3006 RMK AO2 SLP191 T00111050
CYGK - Kingston Arpt (m, Ontario, Canada
Distance from station: NNW 75mi, 121km
Updated: Wed, 20-Mar-2019 11:00pm EDT
NOT Current
Overcast
Overcast
 Wind from NNE
Wind: NNE 3 mph , 6 km/h
Temperature: 34°F , 1°C
Dew Point: 27°F , -3°C
Humidity: 75%
Barometer: 30.10 inHg , 1019.3 hPa
Clouds: Overcast
Visibility: 15 miles , 24 km
Cloud details: Partly cloudy 12000 ft
Overcast 25000 ft
2019/03/21 03:00 CYGK 210300Z 03003KT 15SM SCT120 OVC250 01/M03 A3010 RMK AC3CI5 LAST STFD OBS/NEXT 211000 UTC SLP197